Time;durP1;ratioP1;P1;durP2;ratioP2;P2;SDS_P1;SDS_P2;PMS_P1;PMS_P2;Temp;Humidity;BMP_temperature;BMP_pressure;BME280_temperature;BME280_humidity;BME280_pressure;Samples;Min_cycle;Max_cycle;Signal;HPM_P1;HPM_P2
2022/04/30 00:03:03;;;;;;;13.23;8.47;;;;;9.70;96823.00;;;;8302710;28;20233;-74
2022/04/30 00:07:07;;;;;;;12.63;8.33;;;;;9.60;96821.00;;;;8302466;28;20228;-75
2022/04/30 00:11:11;;;;;;;9.33;7.47;;;;;9.60;96826.00;;;;8311320;28;21346;-74
2022/04/30 00:15:14;;;;;;;10.17;7.67;;;;;9.60;96825.00;;;;8306488;28;20233;-75
2022/04/30 00:19:19;;;;;;;15.87;8.17;;;;;9.50;96816.00;;;;8311077;28;20228;-75
2022/04/30 00:23:22;;;;;;;12.37;7.93;;;;;9.50;96811.00;;;;8306735;28;20864;-76
2022/04/30 00:27:25;;;;;;;14.27;8.10;;;;;9.50;96802.00;;;;8313775;28;20276;-77
2022/04/30 00:31:29;;;;;;;10.10;8.10;;;;;9.40;96807.00;;;;8304379;28;20936;-76
2022/04/30 00:35:33;;;;;;;13.27;8.27;;;;;9.30;96805.00;;;;8314536;28;20316;-77
2022/04/30 00:39:37;;;;;;;11.43;8.00;;;;;9.30;96801.00;;;;8311081;28;20801;-75
2022/04/30 00:43:44;;;;;;;13.37;8.70;;;;;9.20;96801.00;;;;8309205;28;20232;-77
2022/04/30 00:47:47;;;;;;;15.07;8.07;;;;;9.20;96791.00;;;;8312553;28;20717;-75
2022/04/30 00:51:53;;;;;;;12.50;8.63;;;;;9.10;96790.00;;;;8308868;28;20250;-73
2022/04/30 00:55:59;;;;;;;13.17;8.47;;;;;9.10;96790.00;;;;8312676;28;20315;-75
2022/04/30 01:00:03;;;;;;;10.67;8.50;;;;;9.10;96784.00;;;;8309024;28;20225;-74
2022/04/30 01:04:07;;;;;;;13.27;8.43;;;;;9.00;96789.00;;;;8311809;28;20236;-73
2022/04/30 01:08:12;;;;;;;16.70;7.90;;;;;9.00;96795.00;;;;8311652;28;20903;-73
2022/04/30 01:12:16;;;;;;;13.23;7.87;;;;;8.90;96785.00;;;;8309851;28;20228;-73
2022/04/30 01:16:20;;;;;;;14.40;8.30;;;;;8.90;96788.00;;;;8318302;28;20229;-73
2022/04/30 01:20:24;;;;;;;13.40;8.13;;;;;8.90;96770.00;;;;8314743;28;20756;-74
2022/04/30 01:24:30;;;;;;;12.53;8.67;;;;;8.80;96776.00;;;;8316090;28;20593;-76
2022/04/30 01:28:33;;;;;;;11.97;8.93;;;;;8.80;96774.00;;;;8312433;28;20260;-74
2022/04/30 01:41:27;;;;;;;16.33;9.43;;;;;8.50;96756.00;;;;8314576;28;20229;-73
2022/04/30 01:45:30;;;;;;;13.80;9.53;;;;;8.50;96766.00;;;;8316974;28;20766;-73
2022/04/30 01:49:33;;;;;;;14.17;9.33;;;;;8.40;96755.00;;;;8318894;28;20361;-72
2022/04/30 01:53:40;;;;;;;13.47;9.60;;;;;8.40;96754.00;;;;8313327;28;22594;-75
2022/04/30 01:57:44;;;;;;;13.63;9.27;;;;;8.30;96745.00;;;;8322180;28;20708;-75
2022/04/30 02:01:48;;;;;;;15.90;9.30;;;;;8.30;96746.00;;;;8315893;28;20320;-75
2022/04/30 02:05:51;;;;;;;12.87;9.23;;;;;8.30;96746.00;;;;8310863;28;20764;-76
2022/04/30 02:09:57;;;;;;;14.17;9.30;;;;;8.20;96750.00;;;;8310048;28;20550;-75
2022/04/30 02:14:03;;;;;;;14.23;9.37;;;;;8.30;96750.00;;;;8314285;28;20243;-75
2022/04/30 02:18:07;;;;;;;17.23;9.27;;;;;8.30;96746.00;;;;8310445;28;21037;-76
2022/04/30 02:22:12;;;;;;;15.93;8.83;;;;;8.30;96736.00;;;;8311711;28;20221;-75
2022/04/30 02:26:16;;;;;;;15.17;9.47;;;;;8.20;96734.00;;;;8306757;28;20317;-76
2022/04/30 02:30:22;;;;;;;14.43;8.80;;;;;8.20;96730.00;;;;8313155;28;20320;-76
2022/04/30 02:34:25;;;;;;;15.20;9.30;;;;;8.20;96731.00;;;;8310156;28;20332;-76
2022/04/30 02:38:28;;;;;;;13.77;9.40;;;;;8.20;96730.00;;;;8315720;28;20233;-76
2022/04/30 02:42:32;;;;;;;14.83;9.20;;;;;8.20;96720.00;;;;8315645;28;20221;-75
2022/04/30 02:46:36;;;;;;;14.40;9.40;;;;;8.20;96720.00;;;;8314708;28;20576;-74
2022/04/30 02:50:40;;;;;;;15.77;9.40;;;;;8.30;96721.00;;;;8312720;28;20268;-74
2022/04/30 02:54:44;;;;;;;15.60;8.97;;;;;8.30;96722.00;;;;8313436;28;20764;-75
2022/04/30 03:03:10;;;;;;;12.90;8.97;;;;;8.30;96705.00;;;;8321671;22;20239;-73
2022/04/30 03:07:13;;;;;;;13.03;9.03;;;;;8.20;96703.00;;;;8335527;28;20228;-73
2022/04/30 03:11:19;;;;;;;15.77;10.50;;;;;8.20;96699.00;;;;8330200;28;20644;-73
2022/04/30 03:15:22;;;;;;;13.27;9.70;;;;;8.20;96687.00;;;;8331455;28;20251;-72
2022/04/30 03:23:51;;;;;;;17.97;10.43;;;;;8.00;96672.00;;;;8338096;28;20586;-72
2022/04/30 03:27:54;;;;;;;13.77;9.67;;;;;8.00;96669.00;;;;8338586;28;20295;-75
2022/04/30 03:31:58;;;;;;;19.53;9.50;;;;;8.00;96667.00;;;;8324741;28;20225;-72
2022/04/30 03:36:03;;;;;;;13.70;9.97;;;;;7.90;96668.00;;;;8339814;28;20684;-73
2022/04/30 03:40:07;;;;;;;14.77;9.77;;;;;7.90;96668.00;;;;8338444;28;20247;-74
2022/04/30 03:44:10;;;;;;;14.27;9.83;;;;;7.90;96661.00;;;;8328088;28;22831;-74
2022/04/30 03:48:16;;;;;;;16.83;9.37;;;;;7.80;96662.00;;;;8341521;28;25292;-74
2022/04/30 03:52:21;;;;;;;17.57;10.73;;;;;7.80;96658.00;;;;8342758;28;20226;-73
2022/04/30 03:56:25;;;;;;;15.63;9.50;;;;;7.70;96663.00;;;;8334241;28;20269;-76
2022/04/30 04:00:28;;;;;;;15.07;10.17;;;;;7.70;96657.00;;;;8338616;28;20328;-74
2022/04/30 04:04:31;;;;;;;15.27;9.70;;;;;7.70;96660.00;;;;8337775;28;20229;-75
2022/04/30 04:08:36;;;;;;;22.10;10.77;;;;;7.70;96656.00;;;;8333972;28;20239;-74
2022/04/30 04:12:40;;;;;;;14.57;10.17;;;;;7.70;96645.00;;;;8330504;28;20232;-75
2022/04/30 04:21:03;;;;;;;13.73;9.37;;;;;7.70;96654.00;;;;8346116;28;20220;-71
2022/04/30 04:29:29;;;;;;;18.33;9.90;;;;;7.80;96649.00;;;;8330165;28;20255;-73
2022/04/30 04:33:32;;;;;;;17.93;11.47;;;;;7.90;96651.00;;;;8330569;28;20252;-74
2022/04/30 04:37:35;;;;;;;18.10;11.67;;;;;8.20;96645.00;;;;8332303;28;20235;-74
2022/04/30 04:41:41;;;;;;;14.97;10.47;;;;;8.70;96644.00;;;;8342438;28;20234;-74
2022/04/30 04:45:45;;;;;;;17.10;9.53;;;;;9.10;96659.00;;;;8333496;28;20259;-76
2022/04/30 04:49:49;;;;;;;16.40;10.67;;;;;9.40;96657.00;;;;8336039;28;20266;-75
2022/04/30 04:53:52;;;;;;;13.17;9.80;;;;;9.70;96658.00;;;;8342365;28;20889;-74
2022/04/30 04:57:57;;;;;;;12.73;8.97;;;;;9.90;96665.00;;;;8333901;28;20237;-74
2022/04/30 05:02:00;;;;;;;15.87;9.90;;;;;10.10;96667.00;;;;8337832;28;20244;-74
2022/04/30 05:06:04;;;;;;;13.47;9.57;;;;;10.20;96662.00;;;;8348927;28;20776;-75
2022/04/30 05:10:08;;;;;;;15.70;9.33;;;;;10.30;96676.00;;;;8347943;28;20247;-81
2022/04/30 05:14:12;;;;;;;15.20;9.57;;;;;10.40;96668.00;;;;8332431;28;20312;-79
2022/04/30 05:18:15;;;;;;;12.25;8.68;;;;;10.50;96665.00;;;;8341195;28;20707;-74
2022/04/30 05:22:19;;;;;;;14.03;9.23;;;;;10.60;96676.00;;;;8343298;28;20224;-76
2022/04/30 05:26:23;;;;;;;13.95;9.75;;;;;10.60;96673.00;;;;8348078;28;20319;-74
2022/04/30 05:30:27;;;;;;;12.60;8.73;;;;;10.70;96678.00;;;;8346678;28;20320;-75
2022/04/30 05:34:31;;;;;;;15.83;9.23;;;;;10.80;96679.00;;;;8335002;28;20631;-73
2022/04/30 05:38:34;;;;;;;19.60;10.03;;;;;10.90;96681.00;;;;8335895;28;20234;-71
2022/04/30 05:42:37;;;;;;;13.33;9.10;;;;;11.00;96681.00;;;;8338452;28;20249;-73
2022/04/30 05:46:42;;;;;;;18.73;9.73;;;;;11.10;96685.00;;;;8337332;28;20678;-74
2022/04/30 05:50:46;;;;;;;13.60;8.90;;;;;11.30;96693.00;;;;8327235;28;20228;-75
2022/04/30 05:54:49;;;;;;;14.10;9.20;;;;;11.50;96688.00;;;;8336006;28;20244;-73
2022/04/30 05:58:53;;;;;;;15.48;9.45;;;;;11.60;96689.00;;;;8332245;28;20302;-75
2022/04/30 06:02:58;;;;;;;14.02;8.63;;;;;11.70;96693.00;;;;8329981;28;20232;-74
2022/04/30 06:07:01;;;;;;;11.98;8.77;;;;;11.80;96701.00;;;;8329565;28;20328;-75
2022/04/30 06:11:04;;;;;;;17.40;9.43;;;;;12.00;96696.00;;;;8333152;28;20650;-76
2022/04/30 06:15:08;;;;;;;15.73;9.63;;;;;12.20;96700.00;;;;8340489;28;20267;-75
2022/04/30 06:19:13;;;;;;;19.45;9.57;;;;;12.40;96704.00;;;;8334539;28;20233;-78
2022/04/30 06:23:16;;;;;;;14.13;8.75;;;;;12.60;96707.00;;;;8336373;28;20321;-78
2022/04/30 06:27:20;;;;;;;13.98;9.10;;;;;12.80;96711.00;;;;8331886;28;20225;-77
2022/04/30 06:31:23;;;;;;;14.27;9.13;;;;;13.20;96710.00;;;;8335901;28;20640;-76
2022/04/30 06:35:28;;;;;;;20.73;9.23;;;;;13.50;96718.00;;;;8338197;28;20235;-76
2022/04/30 06:39:35;;;;;;;17.30;8.35;;;;;13.70;96715.00;;;;8340833;28;20778;-75
2022/04/30 06:43:41;;;;;;;10.55;8.02;;;;;13.80;96718.00;;;;8338031;28;20649;-75
2022/04/30 06:47:44;;;;;;;11.25;8.30;;;;;13.90;96724.00;;;;8323299;28;20253;-76
2022/04/30 06:51:49;;;;;;;11.57;8.93;;;;;14.10;96722.00;;;;8339319;28;20258;-75
2022/04/30 07:04:48;;;;;;;12.20;8.93;;;;;14.80;96726.00;;;;8333506;28;20275;-73
2022/04/30 07:08:52;;;;;;;13.43;8.60;;;;;15.00;96729.00;;;;8332422;28;20563;-75
2022/04/30 07:12:55;;;;;;;14.98;8.18;;;;;15.10;96723.00;;;;8319808;28;20233;-75
2022/04/30 07:16:59;;;;;;;19.08;8.75;;;;;15.20;96727.00;;;;8341456;28;20300;-76
2022/04/30 07:21:02;;;;;;;16.02;9.07;;;;;15.20;96729.00;;;;8332041;28;20232;-76
2022/04/30 07:25:08;;;;;;;13.55;8.00;;;;;15.10;96731.00;;;;8342542;28;20234;-75
2022/04/30 07:29:11;;;;;;;11.27;7.85;;;;;15.40;96731.00;;;;8330206;28;20223;-74
2022/04/30 07:33:14;;;;;;;8.95;7.03;;;;;16.00;96723.00;;;;8337589;28;20984;-77
2022/04/30 07:37:17;;;;;;;11.70;7.60;;;;;16.70;96725.00;;;;8336594;28;20239;-77
2022/04/30 07:41:22;;;;;;;11.98;7.68;;;;;16.70;96730.00;;;;8341135;28;20247;-75
2022/04/30 07:45:25;;;;;;;13.40;8.30;;;;;16.60;96721.00;;;;8333964;28;20332;-76
2022/04/30 07:49:28;;;;;;;9.43;6.90;;;;;16.90;96726.00;;;;8324585;28;20782;-75
2022/04/30 07:53:32;;;;;;;11.98;7.70;;;;;17.00;96723.00;;;;8334722;28;20247;-75
2022/04/30 07:57:36;;;;;;;10.02;7.60;;;;;17.30;96729.00;;;;8336546;28;20233;-75
2022/04/30 08:01:39;;;;;;;11.20;7.10;;;;;17.80;96726.00;;;;8318598;28;20700;-77
2022/04/30 08:05:43;;;;;;;10.05;7.50;;;;;18.70;96722.00;;;;8315861;28;20641;-77
2022/04/30 08:09:46;;;;;;;13.48;7.28;;;;;18.90;96731.00;;;;8334454;28;20875;-75
2022/04/30 08:13:53;;;;;;;10.50;6.90;;;;;18.70;96723.00;;;;8322181;28;20383;-76
2022/04/30 08:18:02;;;;;;;10.55;6.60;;;;;18.80;96727.00;;;;8316302;28;20233;-77
2022/04/30 08:22:06;;;;;;;12.68;7.15;;;;;19.30;96721.00;;;;8341246;28;20235;-75
2022/04/30 08:26:17;;;;;;;11.02;7.20;;;;;19.90;96731.00;;;;8355756;28;20236;-76
2022/04/30 08:30:22;;;;;;;10.57;6.40;;;;;20.40;96730.00;;;;8348497;28;20228;-76
2022/04/30 08:34:25;;;;;;;10.15;6.35;;;;;21.30;96745.00;;;;8340490;28;20317;-77
2022/04/30 08:38:28;;;;;;;8.32;6.20;;;;;22.30;96739.00;;;;8326630;28;20235;-76
2022/04/30 08:42:31;;;;;;;10.82;6.88;;;;;23.40;96735.00;;;;8336821;28;20236;-79
2022/04/30 08:46:36;;;;;;;8.77;6.15;;;;;23.40;96740.00;;;;8328916;28;20303;-77
2022/04/30 08:50:41;;;;;;;10.48;6.70;;;;;23.30;96736.00;;;;8340097;28;20225;-78
2022/04/30 08:54:44;;;;;;;10.30;5.70;;;;;23.50;96734.00;;;;8321374;28;20308;-77
2022/04/30 08:58:49;;;;;;;8.80;5.50;;;;;23.70;96734.00;;;;8329410;28;20231;-78
2022/04/30 09:02:55;;;;;;;8.38;6.00;;;;;24.40;96733.00;;;;8328058;28;20236;-78
2022/04/30 09:06:58;;;;;;;11.02;6.43;;;;;24.10;96736.00;;;;8352397;28;20228;-77
2022/04/30 09:11:09;;;;;;;8.20;5.90;;;;;24.20;96739.00;;;;8322404;28;20259;-77
2022/04/30 09:15:15;;;;;;;10.00;5.65;;;;;24.30;96740.00;;;;8348658;28;20308;-77
2022/04/30 09:19:20;;;;;;;11.73;6.32;;;;;24.50;96741.00;;;;8350709;28;20236;-79
2022/04/30 09:23:27;;;;;;;10.50;6.25;;;;;24.60;96733.00;;;;8353763;28;20224;-76
2022/04/30 09:27:31;;;;;;;10.10;6.28;;;;;24.90;96732.00;;;;8352037;28;20328;-75
2022/04/30 09:31:34;;;;;;;11.80;6.50;;;;;24.90;96746.00;;;;8334200;28;20328;-79
2022/04/30 09:40:03;;;;;;;8.32;5.88;;;;;25.70;96736.00;;;;8339108;28;20696;-76
2022/04/30 09:44:13;;;;;;;7.82;5.50;;;;;26.10;96733.00;;;;8329944;28;20619;-78
2022/04/30 09:57:04;;;;;;;8.25;5.80;;;;;26.10;96723.00;;;;8312568;28;20889;-76
2022/04/30 10:01:07;;;;;;;6.60;4.85;;;;;26.00;96727.00;;;;8335015;28;20221;-77
2022/04/30 10:05:38;;;;;;;11.93;5.30;;;;;25.90;96717.00;;;;8329752;28;20225;-77
2022/04/30 10:10:20;;;;;;;8.10;4.82;;;;;25.60;96714.00;;;;8329474;28;20308;-77
2022/04/30 10:14:50;;;;;;;9.82;4.95;;;;;25.10;96712.00;;;;8329946;28;20241;-79
2022/04/30 10:19:27;;;;;;;8.02;5.50;;;;;24.90;96706.00;;;;8329117;28;20718;-80
2022/04/30 10:24:04;;;;;;;7.25;4.45;;;;;24.50;96718.00;;;;8330192;28;20236;-78
2022/04/30 10:28:36;;;;;;;8.55;5.28;;;;;24.20;96707.00;;;;8328665;28;20313;-80
2022/04/30 10:33:13;;;;;;;9.85;5.07;;;;;23.80;96699.00;;;;8329115;28;20268;-80
2022/04/30 10:37:50;;;;;;;7.05;5.40;;;;;23.70;96701.00;;;;8328564;28;20300;-80
2022/04/30 10:42:27;;;;;;;8.43;5.05;;;;;23.70;96701.00;;;;8329316;28;20308;-83
2022/04/30 10:47:07;;;;;;;5.53;3.97;;;;;24.00;96701.00;;;;8327753;28;20264;-80
2022/04/30 10:51:45;;;;;;;6.63;4.72;;;;;24.20;96708.00;;;;8328538;28;20221;-80
2022/04/30 10:55:50;;;;;;;5.20;4.45;;;;;24.20;96701.00;;;;8328360;28;20662;-81
2022/04/30 11:00:24;;;;;;;6.63;4.47;;;;;24.20;96697.00;;;;8327909;28;20300;-80
2022/04/30 11:04:27;;;;;;;7.80;4.68;;;;;24.50;96691.00;;;;8340798;28;20312;-83
2022/04/30 11:08:35;;;;;;;7.55;4.95;;;;;24.10;96695.00;;;;8334525;28;20642;-80
2022/04/30 11:12:38;;;;;;;5.32;4.38;;;;;24.00;96690.00;;;;8328791;28;20308;-82
2022/04/30 11:16:45;;;;;;;7.35;4.60;;;;;24.00;96690.00;;;;8336166;28;20307;-80
2022/04/30 11:20:48;;;;;;;10.18;5.10;;;;;24.00;96692.00;;;;8332837;28;20228;-80
2022/04/30 11:24:57;;;;;;;5.60;4.35;;;;;24.50;96681.00;;;;8337415;28;20235;-82
2022/04/30 11:29:01;;;;;;;6.68;4.68;;;;;24.90;96674.00;;;;8327255;28;20240;-79
2022/04/30 11:33:04;;;;;;;6.57;4.68;;;;;25.10;96670.00;;;;8336560;28;20255;-81
2022/04/30 11:37:09;;;;;;;6.38;4.45;;;;;25.30;96663.00;;;;8331854;28;20331;-85
2022/04/30 11:41:19;;;;;;;8.15;4.43;;;;;25.60;96663.00;;;;8343741;28;20827;-83
2022/04/30 11:45:24;;;;;;;5.35;4.70;;;;;25.60;96666.00;;;;8342613;28;20347;-87
2022/04/30 11:49:30;;;;;;;6.10;5.03;;;;;26.10;96675.00;;;;8334599;28;20581;-85
2022/04/30 11:53:41;;;;;;;6.97;4.68;;;;;26.50;96667.00;;;;8344857;28;20251;-84
2022/04/30 11:57:46;;;;;;;5.32;4.82;;;;;26.70;96668.00;;;;8333323;28;20331;-89
2022/04/30 12:01:51;;;;;;;8.00;4.80;;;;;26.30;96666.00;;;;8332694;28;20307;-83
2022/04/30 12:05:54;;;;;;;5.88;4.55;;;;;26.10;96662.00;;;;8328868;28;20626;-83
2022/04/30 12:09:59;;;;;;;15.30;5.03;;;;;26.20;96659.00;;;;8333872;28;20235;-85
2022/04/30 12:14:04;;;;;;;6.82;4.60;;;;;26.10;96655.00;;;;8333466;28;20344;-83
2022/04/30 12:26:58;;;;;;;17.83;5.55;;;;;25.40;96632.00;;;;8333235;28;20315;-83
2022/04/30 12:31:10;;;;;;;9.73;4.80;;;;;25.40;96628.00;;;;8340730;28;20880;-86
2022/04/30 12:35:14;;;;;;;6.03;4.70;;;;;25.00;96619.00;;;;8333671;28;20821;-85
2022/04/30 12:39:18;;;;;;;6.50;4.53;;;;;24.20;96627.00;;;;8335321;28;20240;-85
2022/04/30 12:43:21;;;;;;;6.38;4.65;;;;;23.70;96627.00;;;;8336535;28;20600;-83
2022/04/30 12:47:26;;;;;;;6.07;4.55;;;;;23.60;96628.00;;;;8328706;28;20689;-77
2022/04/30 12:51:29;;;;;;;5.68;4.72;;;;;23.50;96618.00;;;;8336656;28;20232;-81
2022/04/30 12:55:33;;;;;;;5.72;4.38;;;;;23.20;96617.00;;;;8337818;28;20237;-82
2022/04/30 12:59:37;;;;;;;5.75;4.93;;;;;22.90;96612.00;;;;8336109;28;20232;-81
2022/04/30 13:03:42;;;;;;;7.45;4.85;;;;;22.50;96610.00;;;;8338556;28;20255;-82
2022/04/30 13:07:46;;;;;;;6.32;4.75;;;;;22.60;96613.00;;;;8328798;28;20820;-81
2022/04/30 13:16:10;;;;;;;5.57;4.90;;;;;22.80;96606.00;;;;8341910;28;20782;-81
2022/04/30 13:20:15;;;;;;;8.55;5.07;;;;;22.90;96590.00;;;;8338701;28;20237;-81
2022/04/30 13:24:19;;;;;;;7.68;5.03;;;;;23.00;96591.00;;;;8338064;28;20224;-82
2022/04/30 13:28:22;;;;;;;6.25;4.70;;;;;23.40;96592.00;;;;8351355;28;20323;-84
2022/04/30 13:32:25;;;;;;;8.77;5.25;;;;;23.50;96601.00;;;;8344320;28;20662;-82
2022/04/30 13:36:30;;;;;;;6.63;4.65;;;;;23.70;96592.00;;;;8336842;28;20352;-82
2022/04/30 13:40:33;;;;;;;6.45;4.68;;;;;23.80;96588.00;;;;8343452;28;20714;-81
2022/04/30 13:44:36;;;;;;;5.47;4.90;;;;;23.50;96588.00;;;;8335909;28;20331;-79
2022/04/30 13:48:40;;;;;;;6.72;4.32;;;;;23.40;96583.00;;;;8332735;28;20240;-82
2022/04/30 13:52:45;;;;;;;6.90;4.07;;;;;23.70;96574.00;;;;8340940;28;20986;-86
2022/04/30 13:56:48;;;;;;;5.50;4.50;;;;;23.70;96582.00;;;;8339214;28;20224;-85
2022/04/30 14:00:52;;;;;;;5.88;4.63;;;;;23.30;96575.00;;;;8337705;28;20672;-86
2022/04/30 14:04:55;;;;;;;13.52;4.65;;;;;23.30;96573.00;;;;8337437;28;20225;-86
2022/04/30 14:09:00;;;;;;;5.30;4.45;;;;;23.40;96572.00;;;;8334827;28;22226;-86
2022/04/30 14:21:44;;;;;;;5.03;4.40;;;;;23.10;96576.00;;;;8307038;28;20260;-85
2022/04/30 14:25:49;;;;;;;5.43;4.32;;;;;23.20;96571.00;;;;8341426;28;20228;-81
2022/04/30 14:29:53;;;;;;;5.00;3.95;;;;;23.10;96571.00;;;;8327111;28;20221;-82
2022/04/30 14:34:16;;;;;;;5.18;3.40;;;;;23.30;96569.00;;;;8339257;28;20224;-80
2022/04/30 14:38:24;;;;;;;7.65;4.00;;;;;23.50;96569.00;;;;8349058;28;20315;-80
2022/04/30 14:42:29;;;;;;;4.10;3.70;;;;;23.20;96567.00;;;;8351039;28;20312;-81
2022/04/30 14:46:32;;;;;;;9.00;4.45;;;;;23.00;96569.00;;;;8348774;28;20303;-80
2022/04/30 14:50:36;;;;;;;5.53;4.25;;;;;23.00;96567.00;;;;8349738;28;24618;-82
2022/04/30 14:54:39;;;;;;;4.22;3.67;;;;;23.20;96571.00;;;;8340553;28;22431;-81
2022/04/30 14:58:43;;;;;;;5.35;4.60;;;;;23.20;96562.00;;;;8335667;28;20228;-82
2022/04/30 15:02:47;;;;;;;7.05;4.22;;;;;23.50;96563.00;;;;8327110;28;20319;-82
2022/04/30 15:06:50;;;;;;;5.38;3.72;;;;;23.60;96566.00;;;;8331351;28;20301;-80
2022/04/30 15:10:53;;;;;;;4.65;3.88;;;;;23.90;96560.00;;;;8332778;28;20672;-81
2022/04/30 15:14:58;;;;;;;8.32;4.30;;;;;23.90;96558.00;;;;8334867;28;20920;-80
2022/04/30 15:19:01;;;;;;;6.03;3.60;;;;;23.90;96561.00;;;;8335054;28;20255;-81
2022/04/30 15:23:04;;;;;;;4.43;4.03;;;;;23.70;96564.00;;;;8330941;28;20316;-81
2022/04/30 15:27:08;;;;;;;5.30;3.72;;;;;23.60;96557.00;;;;8329508;28;21384;-80
2022/04/30 15:31:12;;;;;;;6.78;4.47;;;;;23.30;96557.00;;;;8338089;28;20229;-80
2022/04/30 15:35:16;;;;;;;11.27;7.88;;;;;22.60;96568.00;;;;8327731;28;20259;-80
2022/04/30 15:39:19;;;;;;;13.75;9.98;;;;;21.60;96573.00;;;;8332672;28;20712;-82
2022/04/30 15:43:23;;;;;;;18.38;9.77;;;;;20.80;96566.00;;;;8326055;28;20236;-81
2022/04/30 15:51:48;;;;;;;14.80;10.85;;;;;19.60;96568.00;;;;8333974;28;20236;-81
2022/04/30 15:55:51;;;;;;;12.32;10.43;;;;;19.20;96564.00;;;;8331699;28;20760;-82
2022/04/30 15:59:55;;;;;;;15.15;10.30;;;;;19.00;96554.00;;;;8337592;28;20235;-81
2022/04/30 16:03:59;;;;;;;18.40;10.85;;;;;18.80;96560.00;;;;8334737;28;20229;-83
2022/04/30 16:08:03;;;;;;;14.50;11.07;;;;;18.80;96553.00;;;;8338282;28;20224;-81
2022/04/30 16:12:06;;;;;;;16.60;10.15;;;;;18.70;96562.00;;;;8336492;28;20226;-78
2022/04/30 16:16:10;;;;;;;15.23;9.45;;;;;18.60;96557.00;;;;8336693;28;20229;-78
2022/04/30 16:20:16;;;;;;;11.30;9.75;;;;;18.50;96554.00;;;;8329115;28;20228;-79
2022/04/30 16:24:19;;;;;;;13.32;9.80;;;;;18.20;96568.00;;;;8333803;28;20895;-79
2022/04/30 16:28:23;;;;;;;15.23;10.82;;;;;18.00;96578.00;;;;8342773;28;20223;-79
2022/04/30 16:32:29;;;;;;;15.43;11.23;;;;;17.70;96562.00;;;;8331453;28;20234;-79
2022/04/30 16:36:34;;;;;;;27.20;12.18;;;;;17.40;96564.00;;;;8334557;28;20235;-78
2022/04/30 16:40:38;;;;;;;15.07;10.13;;;;;16.70;96578.00;;;;8323602;28;20233;-81
2022/04/30 16:44:42;;;;;;;21.25;10.70;;;;;16.30;96590.00;;;;8346384;28;20250;-80
2022/04/30 16:48:46;;;;;;;16.30;11.20;;;;;16.20;96594.00;;;;8343037;28;21731;-80
2022/04/30 16:52:50;;;;;;;15.73;11.25;;;;;16.20;96583.00;;;;8336859;28;20319;-83
2022/04/30 16:57:05;;;;;;;19.58;13.27;;;;;16.20;96587.00;;;;8338553;28;20242;-82
2022/04/30 17:01:15;;;;;;;22.88;16.17;;;;;16.20;96590.00;;;;8335213;28;20235;-82
2022/04/30 17:05:19;;;;;;;10.02;8.88;;;;;16.20;96587.00;;;;8334721;28;20238;-81
2022/04/30 17:09:24;;;;;;;11.65;9.13;;;;;16.20;96585.00;;;;8330706;28;20217;-77
2022/04/30 17:13:27;;;;;;;11.88;9.88;;;;;16.10;96587.00;;;;8339611;28;20232;-77
2022/04/30 17:17:37;;;;;;;11.15;9.18;;;;;16.00;96584.00;;;;8349012;28;20732;-82
2022/04/30 17:21:40;;;;;;;10.00;7.53;;;;;15.90;96593.00;;;;8344228;28;20232;-78
2022/04/30 17:25:45;;;;;;;8.73;7.57;;;;;15.90;96594.00;;;;8344391;28;20271;-78
2022/04/30 17:29:48;;;;;;;8.13;6.78;;;;;15.80;96586.00;;;;8337501;28;20252;-77
2022/04/30 17:38:12;;;;;;;11.65;6.90;;;;;15.60;96594.00;;;;8327185;28;20338;-76
2022/04/30 17:42:17;;;;;;;9.18;7.15;;;;;15.60;96589.00;;;;8335068;28;20238;-76
2022/04/30 17:46:20;;;;;;;10.07;7.68;;;;;15.50;96596.00;;;;8331065;28;20219;-77
2022/04/30 17:50:28;;;;;;;63.85;25.90;;;;;15.40;96596.00;;;;8341477;28;20974;-77
2022/04/30 17:54:32;;;;;;;13.05;10.90;;;;;15.20;96600.00;;;;8326694;28;20682;-76
2022/04/30 17:58:37;;;;;;;47.10;41.40;;;;;15.10;96604.00;;;;8330162;28;20242;-77
2022/04/30 18:02:41;;;;;;;51.30;43.20;;;;;15.00;96601.00;;;;8339961;28;20240;-78
2022/04/30 18:06:46;;;;;;;11.23;9.45;;;;;15.00;96606.00;;;;8341610;28;20224;-76
2022/04/30 18:10:51;;;;;;;11.65;9.15;;;;;14.90;96607.00;;;;8340045;28;20672;-76
2022/04/30 18:14:56;;;;;;;9.85;8.25;;;;;14.80;96608.00;;;;8337228;28;20319;-78
2022/04/30 18:18:59;;;;;;;11.23;7.70;;;;;14.80;96605.00;;;;8342917;28;20867;-78
2022/04/30 18:23:02;;;;;;;9.68;7.63;;;;;14.70;96608.00;;;;8337089;28;20260;-79
2022/04/30 18:27:06;;;;;;;12.23;8.32;;;;;14.60;96605.00;;;;8332354;28;20235;-78
2022/04/30 18:31:11;;;;;;;8.27;7.40;;;;;14.40;96613.00;;;;8338034;28;20234;-77
2022/04/30 18:35:14;;;;;;;9.15;7.40;;;;;14.20;96620.00;;;;8335508;28;20225;-78
2022/04/30 18:39:18;;;;;;;10.48;7.43;;;;;14.10;96614.00;;;;8337957;28;20231;-79
2022/04/30 18:43:24;;;;;;;9.48;7.32;;;;;14.00;96627.00;;;;8336572;28;20332;-77
2022/04/30 18:47:29;;;;;;;9.68;6.22;;;;;13.90;96612.00;;;;8337507;28;20307;-79
2022/04/30 18:51:33;;;;;;;9.55;6.80;;;;;13.90;96623.00;;;;8344706;28;20228;-76
2022/04/30 19:04:20;;;;;;;11.40;6.20;;;;;13.70;96612.00;;;;8333005;28;20268;-79
2022/04/30 19:08:23;;;;;;;7.10;6.40;;;;;13.60;96623.00;;;;8342331;28;20604;-77
2022/04/30 19:12:26;;;;;;;8.98;6.60;;;;;13.50;96619.00;;;;8334805;28;20238;-77
2022/04/30 19:16:30;;;;;;;9.50;5.95;;;;;13.50;96625.00;;;;8334363;28;20235;-77
2022/04/30 19:20:34;;;;;;;7.25;5.75;;;;;13.50;96636.00;;;;8329560;28;20235;-77
2022/04/30 19:24:38;;;;;;;9.07;6.45;;;;;13.50;96641.00;;;;8327427;28;20589;-77
2022/04/30 19:28:42;;;;;;;7.80;6.03;;;;;13.50;96645.00;;;;8333071;28;20229;-77
2022/04/30 19:32:45;;;;;;;9.35;6.45;;;;;13.50;96647.00;;;;8331957;28;20248;-76
2022/04/30 19:36:50;;;;;;;8.23;6.50;;;;;13.50;96643.00;;;;8333271;28;20379;-77
2022/04/30 19:40:54;;;;;;;7.78;6.63;;;;;13.50;96653.00;;;;8333962;28;20261;-76
2022/04/30 19:44:57;;;;;;;6.93;6.22;;;;;13.50;96661.00;;;;8342266;28;20238;-78
2022/04/30 19:49:00;;;;;;;8.80;6.82;;;;;13.50;96663.00;;;;8324439;28;20281;-78
2022/04/30 19:53:06;;;;;;;9.40;7.47;;;;;13.50;96668.00;;;;8336470;28;20700;-77
2022/04/30 19:57:09;;;;;;;9.80;7.15;;;;;13.50;96680.00;;;;8343467;28;20318;-77
2022/04/30 20:01:12;;;;;;;9.00;7.72;;;;;13.50;96676.00;;;;8331270;28;20585;-79
2022/04/30 20:05:23;;;;;;;8.88;7.30;;;;;13.50;96675.00;;;;8335035;28;20231;-78
2022/04/30 20:09:30;;;;;;;8.27;7.03;;;;;13.50;96670.00;;;;8323546;28;20233;-77
2022/04/30 20:17:56;;;;;;;9.32;6.60;;;;;13.40;96677.00;;;;8319575;28;20226;-78
2022/04/30 20:22:02;;;;;;;8.52;6.72;;;;;13.40;96675.00;;;;8334414;28;20243;-83
2022/04/30 20:26:08;;;;;;;10.38;7.05;;;;;13.40;96673.00;;;;8335662;28;20224;-79
2022/04/30 20:30:12;;;;;;;9.30;6.97;;;;;13.40;96682.00;;;;8326220;28;20223;-78
2022/04/30 20:38:51;;;;;;;9.95;7.03;;;;;13.30;96681.00;;;;8334496;28;20238;-78
2022/04/30 20:42:56;;;;;;;16.08;7.93;;;;;13.30;96685.00;;;;8327294;28;20322;-80
2022/04/30 20:46:59;;;;;;;8.35;7.13;;;;;13.20;96681.00;;;;8326995;28;20233;-79
2022/04/30 20:51:05;;;;;;;8.75;7.43;;;;;13.20;96685.00;;;;8329874;28;20269;-78
2022/04/30 20:55:08;;;;;;;10.13;6.80;;;;;13.10;96682.00;;;;8318548;28;20310;-80
2022/04/30 20:59:14;;;;;;;9.20;7.07;;;;;13.10;96686.00;;;;8325233;28;20231;-80
2022/04/30 21:03:17;;;;;;;10.15;6.88;;;;;13.10;96681.00;;;;8323796;28;20229;-77
2022/04/30 21:07:21;;;;;;;10.10;7.07;;;;;13.10;96675.00;;;;8327165;28;20236;-80
2022/04/30 21:11:24;;;;;;;7.45;6.32;;;;;13.00;96681.00;;;;8334881;28;20224;-79
2022/04/30 21:15:28;;;;;;;10.07;6.82;;;;;12.90;96676.00;;;;8336765;28;20226;-79
2022/04/30 21:19:36;;;;;;;9.63;7.07;;;;;12.80;96669.00;;;;8333056;28;20223;-80
2022/04/30 21:23:40;;;;;;;9.35;7.28;;;;;12.60;96671.00;;;;8333946;28;20239;-81
2022/04/30 21:27:43;;;;;;;10.70;7.47;;;;;12.40;96669.00;;;;8331876;28;20232;-82
2022/04/30 21:31:48;;;;;;;10.00;8.15;;;;;12.20;96666.00;;;;8332726;28;20239;-80
2022/04/30 21:35:51;;;;;;;11.02;8.70;;;;;12.10;96669.00;;;;8343187;28;20855;-80
2022/04/30 21:39:54;;;;;;;10.80;8.13;;;;;12.00;96663.00;;;;8332776;28;20319;-77
2022/04/30 21:43:57;;;;;;;11.25;8.32;;;;;11.90;96663.00;;;;8336019;28;20259;-78
2022/04/30 21:48:02;;;;;;;13.15;8.35;;;;;11.80;96660.00;;;;8328920;28;20257;-78
2022/04/30 21:52:06;;;;;;;13.88;8.68;;;;;11.70;96652.00;;;;8335780;28;20234;-77
2022/04/30 22:00:50;;;;;;;13.52;9.70;;;;;11.60;96643.00;;;;8341268;28;20732;-78
2022/04/30 22:04:54;;;;;;;14.53;10.07;;;;;11.60;96651.00;;;;8329606;28;20236;-75